sensor_id;sensor_type;location;lat;lon;timestamp;temperature;humidity
2913;DHT22;1466;48.778;9.166;2023-10-19T00:00:35;14.10;99.90
2913;DHT22;1466;48.778;9.166;2023-10-19T00:03:02;14.10;99.90
2913;DHT22;1466;48.778;9.166;2023-10-19T00:05:29;14.10;99.90
2913;DHT22;1466;48.778;9.166;2023-10-19T00:07:56;14.10;99.90
2913;DHT22;1466;48.778;9.166;2023-10-19T00:10:26;14.10;99.90
2913;DHT22;1466;48.778;9.166;2023-10-19T00:12:58;14.10;99.90
2913;DHT22;1466;48.778;9.166;2023-10-19T00:15:31;14.10;99.90
2913;DHT22;1466;48.778;9.166;2023-10-19T00:17:58;14.10;99.90
2913;DHT22;1466;48.778;9.166;2023-10-19T00:20:31;14.10;99.90
2913;DHT22;1466;48.778;9.166;2023-10-19T00:23:12;14.00;99.90
2913;DHT22;1466;48.778;9.166;2023-10-19T00:25:46;14.00;99.90
2913;DHT22;1466;48.778;9.166;2023-10-19T00:28:17;14.00;99.90
2913;DHT22;1466;48.778;9.166;2023-10-19T00:30:44;14.00;99.90
2913;DHT22;1466;48.778;9.166;2023-10-19T00:33:11;14.00;99.90
2913;DHT22;1466;48.778;9.166;2023-10-19T00:35:47;14.00;99.90
2913;DHT22;1466;48.778;9.166;2023-10-19T00:38:22;14.00;99.90
2913;DHT22;1466;48.778;9.166;2023-10-19T00:41:01;14.10;99.90
2913;DHT22;1466;48.778;9.166;2023-10-19T00:43:47;14.10;99.90
2913;DHT22;1466;48.778;9.166;2023-10-19T00:46:23;14.20;99.90
2913;DHT22;1466;48.778;9.166;2023-10-19T00:48:57;14.20;99.90
2913;DHT22;1466;48.778;9.166;2023-10-19T00:51:28;14.20;99.90
2913;DHT22;1466;48.778;9.166;2023-10-19T00:54:15;14.20;99.90
2913;DHT22;1466;48.778;9.166;2023-10-19T00:56:43;14.20;99.90
2913;DHT22;1466;48.778;9.166;2023-10-19T00:59:14;14.20;99.90
2913;DHT22;1466;48.778;9.166;2023-10-19T01:01:45;14.20;99.90
2913;DHT22;1466;48.778;9.166;2023-10-19T01:04:14;14.20;99.90
2913;DHT22;1466;48.778;9.166;2023-10-19T01:06:43;14.30;99.90
2913;DHT22;1466;48.778;9.166;2023-10-19T01:09:27;14.30;99.90
2913;DHT22;1466;48.778;9.166;2023-10-19T01:11:53;14.40;99.90
2913;DHT22;1466;48.778;9.166;2023-10-19T01:14:22;14.40;99.90
2913;DHT22;1466;48.778;9.166;2023-10-19T01:16:49;14.40;99.90
2913;DHT22;1466;48.778;9.166;2023-10-19T01:19:22;14.40;99.90
2913;DHT22;1466;48.778;9.166;2023-10-19T01:21:49;14.40;99.90
2913;DHT22;1466;48.778;9.166;2023-10-19T01:24:21;14.50;99.90
2913;DHT22;1466;48.778;9.166;2023-10-19T01:26:54;14.50;99.90
2913;DHT22;1466;48.778;9.166;2023-10-19T01:29:22;14.50;99.90
2913;DHT22;1466;48.778;9.166;2023-10-19T01:31:52;14.60;99.90
2913;DHT22;1466;48.778;9.166;2023-10-19T01:34:38;14.60;99.90
2913;DHT22;1466;48.778;9.166;2023-10-19T01:37:03;14.60;99.90
2913;DHT22;1466;48.778;9.166;2023-10-19T01:39:33;14.60;99.90
2913;DHT22;1466;48.778;9.166;2023-10-19T01:42:02;14.70;99.90
2913;DHT22;1466;48.778;9.166;2023-10-19T01:44:33;14.70;99.90
2913;DHT22;1466;48.778;9.166;2023-10-19T01:47:01;14.70;99.90
2913;DHT22;1466;48.778;9.166;2023-10-19T01:49:27;14.80;99.90
2913;DHT22;1466;48.778;9.166;2023-10-19T01:51:55;14.80;99.90
2913;DHT22;1466;48.778;9.166;2023-10-19T01:54:22;14.80;99.90
2913;DHT22;1466;48.778;9.166;2023-10-19T01:56:54;14.90;99.90
2913;DHT22;1466;48.778;9.166;2023-10-19T01:59:23;14.90;99.90
2913;DHT22;1466;48.778;9.166;2023-10-19T02:01:56;14.90;99.90
2913;DHT22;1466;48.778;9.166;2023-10-19T02:04:23;14.90;99.90
2913;DHT22;1466;48.778;9.166;2023-10-19T02:06:49;14.90;99.90
2913;DHT22;1466;48.778;9.166;2023-10-19T02:09:17;14.90;99.90
2913;DHT22;1466;48.778;9.166;2023-10-19T02:11:44;15.00;99.90
2913;DHT22;1466;48.778;9.166;2023-10-19T02:14:13;15.00;99.90
2913;DHT22;1466;48.778;9.166;2023-10-19T02:16:43;15.00;99.90
2913;DHT22;1466;48.778;9.166;2023-10-19T02:19:09;15.00;99.90
2913;DHT22;1466;48.778;9.166;2023-10-19T02:21:35;15.00;99.90
2913;DHT22;1466;48.778;9.166;2023-10-19T02:24:08;15.00;99.90
2913;DHT22;1466;48.778;9.166;2023-10-19T02:26:34;14.90;99.90
2913;DHT22;1466;48.778;9.166;2023-10-19T02:29:01;14.90;99.90
2913;DHT22;1466;48.778;9.166;2023-10-19T02:31:33;14.90;99.90
2913;DHT22;1466;48.778;9.166;2023-10-19T02:33:59;15.00;99.90
2913;DHT22;1466;48.778;9.166;2023-10-19T02:36:26;15.00;99.90
2913;DHT22;1466;48.778;9.166;2023-10-19T02:39:00;14.90;99.90
2913;DHT22;1466;48.778;9.166;2023-10-19T02:41:29;14.90;99.90
2913;DHT22;1466;48.778;9.166;2023-10-19T02:43:55;14.80;99.90
2913;DHT22;1466;48.778;9.166;2023-10-19T02:46:35;14.70;99.90
2913;DHT22;1466;48.778;9.166;2023-10-19T02:49:05;14.60;99.90
2913;DHT22;1466;48.778;9.166;2023-10-19T02:51:37;14.50;99.90
2913;DHT22;1466;48.778;9.166;2023-10-19T02:54:04;14.40;99.90
2913;DHT22;1466;48.778;9.166;2023-10-19T02:56:29;14.30;99.90
2913;DHT22;1466;48.778;9.166;2023-10-19T02:59:01;14.30;99.90
2913;DHT22;1466;48.778;9.166;2023-10-19T03:01:31;14.30;99.90
2913;DHT22;1466;48.778;9.166;2023-10-19T03:03:59;14.30;99.90
2913;DHT22;1466;48.778;9.166;2023-10-19T03:06:28;14.30;99.90
2913;DHT22;1466;48.778;9.166;2023-10-19T03:09:05;14.30;99.90
2913;DHT22;1466;48.778;9.166;2023-10-19T03:11:42;14.30;99.90
2913;DHT22;1466;48.778;9.166;2023-10-19T03:14:09;14.30;99.90
2913;DHT22;1466;48.778;9.166;2023-10-19T03:16:37;14.30;99.90
2913;DHT22;1466;48.778;9.166;2023-10-19T03:19:03;14.30;99.90
2913;DHT22;1466;48.778;9.166;2023-10-19T03:21:30;14.20;99.90
2913;DHT22;1466;48.778;9.166;2023-10-19T03:23:59;14.10;99.90
2913;DHT22;1466;48.778;9.166;2023-10-19T03:26:30;14.10;99.90
2913;DHT22;1466;48.778;9.166;2023-10-19T03:29:02;14.10;99.90
2913;DHT22;1466;48.778;9.166;2023-10-19T03:31:33;14.10;99.90
2913;DHT22;1466;48.778;9.166;2023-10-19T03:34:03;14.10;99.90
2913;DHT22;1466;48.778;9.166;2023-10-19T03:36:31;14.00;99.90
2913;DHT22;1466;48.778;9.166;2023-10-19T03:38:58;14.00;99.90
2913;DHT22;1466;48.778;9.166;2023-10-19T03:41:30;14.00;99.90
2913;DHT22;1466;48.778;9.166;2023-10-19T03:44:01;14.00;99.90
2913;DHT22;1466;48.778;9.166;2023-10-19T03:46:26;14.10;99.90
2913;DHT22;1466;48.778;9.166;2023-10-19T03:49:00;14.10;99.90
2913;DHT22;1466;48.778;9.166;2023-10-19T03:51:39;14.10;99.90
2913;DHT22;1466;48.778;9.166;2023-10-19T03:54:08;14.00;99.90
2913;DHT22;1466;48.778;9.166;2023-10-19T03:56:40;14.00;99.90
2913;DHT22;1466;48.778;9.166;2023-10-19T03:59:06;13.90;99.90
2913;DHT22;1466;48.778;9.166;2023-10-19T04:01:32;14.00;99.90
2913;DHT22;1466;48.778;9.166;2023-10-19T04:03:57;14.00;99.90
2913;DHT22;1466;48.778;9.166;2023-10-19T04:06:23;14.00;99.90
2913;DHT22;1466;48.778;9.166;2023-10-19T04:08:49;14.00;99.90
2913;DHT22;1466;48.778;9.166;2023-10-19T04:11:17;13.90;99.90
2913;DHT22;1466;48.778;9.166;2023-10-19T04:13:49;13.90;99.90
2913;DHT22;1466;48.778;9.166;2023-10-19T04:16:21;13.90;99.90
2913;DHT22;1466;48.778;9.166;2023-10-19T04:18:47;14.00;99.90
2913;DHT22;1466;48.778;9.166;2023-10-19T04:21:13;14.00;99.90
2913;DHT22;1466;48.778;9.166;2023-10-19T04:23:39;14.00;99.90
2913;DHT22;1466;48.778;9.166;2023-10-19T04:26:04;14.00;99.90
2913;DHT22;1466;48.778;9.166;2023-10-19T04:28:35;14.00;99.90
2913;DHT22;1466;48.778;9.166;2023-10-19T04:31:11;14.00;99.90
2913;DHT22;1466;48.778;9.166;2023-10-19T04:33:39;14.00;99.90
2913;DHT22;1466;48.778;9.166;2023-10-19T04:36:05;14.00;99.90
2913;DHT22;1466;48.778;9.166;2023-10-19T04:38:34;14.00;99.90
2913;DHT22;1466;48.778;9.166;2023-10-19T04:41:10;14.00;99.90
2913;DHT22;1466;48.778;9.166;2023-10-19T04:43:37;14.00;99.90
2913;DHT22;1466;48.778;9.166;2023-10-19T04:46:10;14.00;99.90
2913;DHT22;1466;48.778;9.166;2023-10-19T04:48:39;14.10;99.90
2913;DHT22;1466;48.778;9.166;2023-10-19T04:51:06;14.00;99.90
2913;DHT22;1466;48.778;9.166;2023-10-19T04:53:32;14.10;99.90
2913;DHT22;1466;48.778;9.166;2023-10-19T04:55:58;14.00;99.90
2913;DHT22;1466;48.778;9.166;2023-10-19T04:58:27;14.10;99.90
2913;DHT22;1466;48.778;9.166;2023-10-19T05:00:53;14.10;99.90
2913;DHT22;1466;48.778;9.166;2023-10-19T05:03:19;14.10;99.90
2913;DHT22;1466;48.778;9.166;2023-10-19T05:05:45;14.10;99.90
2913;DHT22;1466;48.778;9.166;2023-10-19T05:08:11;14.10;99.90
2913;DHT22;1466;48.778;9.166;2023-10-19T05:10:36;14.10;99.90
2913;DHT22;1466;48.778;9.166;2023-10-19T05:13:03;14.10;99.90
2913;DHT22;1466;48.778;9.166;2023-10-19T05:15:29;14.00;99.90
2913;DHT22;1466;48.778;9.166;2023-10-19T05:17:54;14.00;99.90
2913;DHT22;1466;48.778;9.166;2023-10-19T05:20:20;14.00;99.90
2913;DHT22;1466;48.778;9.166;2023-10-19T05:22:46;14.00;99.90
2913;DHT22;1466;48.778;9.166;2023-10-19T05:25:12;13.90;99.90
2913;DHT22;1466;48.778;9.166;2023-10-19T05:27:38;13.90;99.90
2913;DHT22;1466;48.778;9.166;2023-10-19T05:30:05;14.00;99.90
2913;DHT22;1466;48.778;9.166;2023-10-19T05:32:31;14.00;99.90
2913;DHT22;1466;48.778;9.166;2023-10-19T05:34:57;14.00;99.90
2913;DHT22;1466;48.778;9.166;2023-10-19T05:37:23;14.00;99.90
2913;DHT22;1466;48.778;9.166;2023-10-19T05:39:51;14.10;99.90
2913;DHT22;1466;48.778;9.166;2023-10-19T05:42:17;14.00;99.90
2913;DHT22;1466;48.778;9.166;2023-10-19T05:44:43;14.00;99.90
2913;DHT22;1466;48.778;9.166;2023-10-19T05:47:09;14.00;99.90
2913;DHT22;1466;48.778;9.166;2023-10-19T05:49:34;14.00;99.90
2913;DHT22;1466;48.778;9.166;2023-10-19T05:52:00;14.00;99.90
2913;DHT22;1466;48.778;9.166;2023-10-19T05:54:26;14.00;99.90
2913;DHT22;1466;48.778;9.166;2023-10-19T05:56:52;14.10;99.90
2913;DHT22;1466;48.778;9.166;2023-10-19T05:59:18;14.10;99.90
2913;DHT22;1466;48.778;9.166;2023-10-19T06:01:43;14.10;99.90
2913;DHT22;1466;48.778;9.166;2023-10-19T06:04:12;14.20;99.90
2913;DHT22;1466;48.778;9.166;2023-10-19T06:06:39;14.20;99.90
2913;DHT22;1466;48.778;9.166;2023-10-19T06:09:07;14.20;99.90
2913;DHT22;1466;48.778;9.166;2023-10-19T06:11:36;14.30;99.90
2913;DHT22;1466;48.778;9.166;2023-10-19T06:14:04;14.20;99.90
2913;DHT22;1466;48.778;9.166;2023-10-19T06:16:32;14.20;99.90
2913;DHT22;1466;48.778;9.166;2023-10-19T06:18:59;14.30;99.90
2913;DHT22;1466;48.778;9.166;2023-10-19T06:21:24;14.30;99.90
2913;DHT22;1466;48.778;9.166;2023-10-19T06:23:50;14.30;99.90
2913;DHT22;1466;48.778;9.166;2023-10-19T06:26:16;14.30;99.90
2913;DHT22;1466;48.778;9.166;2023-10-19T06:28:42;14.30;99.90
2913;DHT22;1466;48.778;9.166;2023-10-19T06:31:07;14.40;99.90
2913;DHT22;1466;48.778;9.166;2023-10-19T06:33:34;14.40;99.90
2913;DHT22;1466;48.778;9.166;2023-10-19T06:35:59;14.40;99.90
2913;DHT22;1466;48.778;9.166;2023-10-19T06:38:31;14.40;99.90
2913;DHT22;1466;48.778;9.166;2023-10-19T06:40:57;14.50;99.90
2913;DHT22;1466;48.778;9.166;2023-10-19T06:43:22;14.50;99.90
2913;DHT22;1466;48.778;9.166;2023-10-19T06:45:53;14.50;99.90
2913;DHT22;1466;48.778;9.166;2023-10-19T06:48:20;14.50;99.90
2913;DHT22;1466;48.778;9.166;2023-10-19T06:50:46;14.50;99.90
2913;DHT22;1466;48.778;9.166;2023-10-19T06:53:11;14.50;99.90
2913;DHT22;1466;48.778;9.166;2023-10-19T06:55:37;14.60;99.90
2913;DHT22;1466;48.778;9.166;2023-10-19T06:58:03;14.60;99.90
2913;DHT22;1466;48.778;9.166;2023-10-19T07:00:30;14.70;99.90
2913;DHT22;1466;48.778;9.166;2023-10-19T07:02:57;14.60;99.90
2913;DHT22;1466;48.778;9.166;2023-10-19T07:05:26;14.70;99.90
2913;DHT22;1466;48.778;9.166;2023-10-19T07:07:55;14.80;99.90
2913;DHT22;1466;48.778;9.166;2023-10-19T07:10:23;14.70;99.90
2913;DHT22;1466;48.778;9.166;2023-10-19T07:12:52;14.70;99.90
2913;DHT22;1466;48.778;9.166;2023-10-19T07:15:19;14.60;99.90
2913;DHT22;1466;48.778;9.166;2023-10-19T07:17:45;14.70;99.90
2913;DHT22;1466;48.778;9.166;2023-10-19T07:20:12;14.70;99.90
2913;DHT22;1466;48.778;9.166;2023-10-19T07:22:51;14.70;99.90
2913;DHT22;1466;48.778;9.166;2023-10-19T07:25:17;14.80;99.90
2913;DHT22;1466;48.778;9.166;2023-10-19T07:27:47;14.90;99.90
2913;DHT22;1466;48.778;9.166;2023-10-19T07:30:13;14.90;99.90
2913;DHT22;1466;48.778;9.166;2023-10-19T07:32:40;14.90;99.90
2913;DHT22;1466;48.778;9.166;2023-10-19T07:35:06;14.80;99.90
2913;DHT22;1466;48.778;9.166;2023-10-19T07:37:32;14.90;99.90
2913;DHT22;1466;48.778;9.166;2023-10-19T07:39:58;15.00;99.90
2913;DHT22;1466;48.778;9.166;2023-10-19T07:42:24;15.00;99.90
2913;DHT22;1466;48.778;9.166;2023-10-19T07:44:51;15.10;99.90
2913;DHT22;1466;48.778;9.166;2023-10-19T07:47:16;15.10;99.90
2913;DHT22;1466;48.778;9.166;2023-10-19T07:49:42;15.20;99.90
2913;DHT22;1466;48.778;9.166;2023-10-19T07:52:08;15.30;99.90
2913;DHT22;1466;48.778;9.166;2023-10-19T07:54:36;15.30;99.90
2913;DHT22;1466;48.778;9.166;2023-10-19T07:57:03;15.30;99.90
2913;DHT22;1466;48.778;9.166;2023-10-19T07:59:32;15.40;99.90
2913;DHT22;1466;48.778;9.166;2023-10-19T08:01:58;15.50;99.90
2913;DHT22;1466;48.778;9.166;2023-10-19T08:04:23;15.60;99.90
2913;DHT22;1466;48.778;9.166;2023-10-19T08:06:50;15.60;99.90
2913;DHT22;1466;48.778;9.166;2023-10-19T08:09:16;15.70;99.90
2913;DHT22;1466;48.778;9.166;2023-10-19T08:11:51;15.70;99.90
2913;DHT22;1466;48.778;9.166;2023-10-19T08:14:22;15.70;99.90
2913;DHT22;1466;48.778;9.166;2023-10-19T08:16:49;15.70;99.90
2913;DHT22;1466;48.778;9.166;2023-10-19T08:19:16;15.60;99.90
2913;DHT22;1466;48.778;9.166;2023-10-19T08:21:42;15.60;99.90
2913;DHT22;1466;48.778;9.166;2023-10-19T08:24:08;15.60;99.90
2913;DHT22;1466;48.778;9.166;2023-10-19T08:26:39;15.70;99.90
2913;DHT22;1466;48.778;9.166;2023-10-19T08:29:05;15.80;99.90
2913;DHT22;1466;48.778;9.166;2023-10-19T08:31:41;16.10;99.90
2913;DHT22;1466;48.778;9.166;2023-10-19T08:34:07;16.30;99.90
2913;DHT22;1466;48.778;9.166;2023-10-19T08:36:35;16.60;99.90
2913;DHT22;1466;48.778;9.166;2023-10-19T08:39:06;16.90;99.90
2913;DHT22;1466;48.778;9.166;2023-10-19T08:41:35;17.10;99.90
2913;DHT22;1466;48.778;9.166;2023-10-19T08:44:04;17.30;99.90
2913;DHT22;1466;48.778;9.166;2023-10-19T08:46:30;17.50;99.90
2913;DHT22;1466;48.778;9.166;2023-10-19T08:48:56;17.50;99.90
2913;DHT22;1466;48.778;9.166;2023-10-19T08:51:22;17.60;99.90
2913;DHT22;1466;48.778;9.166;2023-10-19T08:53:54;17.70;99.90
2913;DHT22;1466;48.778;9.166;2023-10-19T08:56:19;17.80;99.90
2913;DHT22;1466;48.778;9.166;2023-10-19T08:58:50;17.90;99.90
2913;DHT22;1466;48.778;9.166;2023-10-19T09:01:18;17.90;99.90
2913;DHT22;1466;48.778;9.166;2023-10-19T09:03:45;17.90;99.90
2913;DHT22;1466;48.778;9.166;2023-10-19T09:06:12;17.90;99.90
2913;DHT22;1466;48.778;9.166;2023-10-19T09:08:39;18.00;99.90
2913;DHT22;1466;48.778;9.166;2023-10-19T09:11:09;18.00;99.90
2913;DHT22;1466;48.778;9.166;2023-10-19T09:14:03;18.20;99.90
2913;DHT22;1466;48.778;9.166;2023-10-19T09:16:31;18.30;99.90
2913;DHT22;1466;48.778;9.166;2023-10-19T09:18:57;18.40;99.90
2913;DHT22;1466;48.778;9.166;2023-10-19T09:21:23;18.50;99.90
2913;DHT22;1466;48.778;9.166;2023-10-19T09:23:52;18.60;99.90
2913;DHT22;1466;48.778;9.166;2023-10-19T09:26:18;18.60;99.90
2913;DHT22;1466;48.778;9.166;2023-10-19T09:28:49;18.60;99.90
2913;DHT22;1466;48.778;9.166;2023-10-19T09:31:16;18.50;99.90
2913;DHT22;1466;48.778;9.166;2023-10-19T09:33:46;18.60;99.90
2913;DHT22;1466;48.778;9.166;2023-10-19T09:36:13;18.60;99.90
2913;DHT22;1466;48.778;9.166;2023-10-19T09:38:49;18.50;99.90
2913;DHT22;1466;48.778;9.166;2023-10-19T09:41:18;18.50;99.90
2913;DHT22;1466;48.778;9.166;2023-10-19T09:43:46;18.60;99.90
2913;DHT22;1466;48.778;9.166;2023-10-19T09:46:15;18.60;99.90
2913;DHT22;1466;48.778;9.166;2023-10-19T09:48:47;18.70;99.90
2913;DHT22;1466;48.778;9.166;2023-10-19T09:51:14;18.60;99.90
2913;DHT22;1466;48.778;9.166;2023-10-19T09:53:43;18.70;99.90
2913;DHT22;1466;48.778;9.166;2023-10-19T09:56:21;18.60;99.90
2913;DHT22;1466;48.778;9.166;2023-10-19T09:59:33;18.60;99.90
2913;DHT22;1466;48.778;9.166;2023-10-19T10:02:08;18.60;99.90
2913;DHT22;1466;48.778;9.166;2023-10-19T10:04:35;18.50;99.90
2913;DHT22;1466;48.778;9.166;2023-10-19T10:07:01;18.50;99.90
2913;DHT22;1466;48.778;9.166;2023-10-19T10:09:26;18.50;99.90
2913;DHT22;1466;48.778;9.166;2023-10-19T10:11:52;18.60;99.90
2913;DHT22;1466;48.778;9.166;2023-10-19T10:14:25;18.70;99.90
2913;DHT22;1466;48.778;9.166;2023-10-19T10:17:03;18.70;99.90
2913;DHT22;1466;48.778;9.166;2023-10-19T10:19:30;18.70;99.90
2913;DHT22;1466;48.778;9.166;2023-10-19T10:22:10;18.70;99.90
2913;DHT22;1466;48.778;9.166;2023-10-19T10:24:41;18.80;99.90
2913;DHT22;1466;48.778;9.166;2023-10-19T10:27:06;18.80;99.90
2913;DHT22;1466;48.778;9.166;2023-10-19T10:29:32;18.80;99.90
2913;DHT22;1466;48.778;9.166;2023-10-19T10:31:58;18.90;99.90
2913;DHT22;1466;48.778;9.166;2023-10-19T10:37:03;19.00;99.90
2913;DHT22;1466;48.778;9.166;2023-10-19T10:39:30;19.00;99.90
2913;DHT22;1466;48.778;9.166;2023-10-19T10:41:57;19.10;99.90
2913;DHT22;1466;48.778;9.166;2023-10-19T10:44:39;19.10;99.90
2913;DHT22;1466;48.778;9.166;2023-10-19T10:47:10;19.10;99.90
2913;DHT22;1466;48.778;9.166;2023-10-19T10:49:58;19.10;99.90
2913;DHT22;1466;48.778;9.166;2023-10-19T10:54:55;19.00;99.90
2913;DHT22;1466;48.778;9.166;2023-10-19T10:57:20;19.00;99.90
2913;DHT22;1466;48.778;9.166;2023-10-19T10:59:46;19.00;99.90
2913;DHT22;1466;48.778;9.166;2023-10-19T11:02:21;19.00;99.90
2913;DHT22;1466;48.778;9.166;2023-10-19T11:04:47;18.90;99.90
2913;DHT22;1466;48.778;9.166;2023-10-19T11:07:19;18.90;99.90
2913;DHT22;1466;48.778;9.166;2023-10-19T11:09:48;18.80;99.90
2913;DHT22;1466;48.778;9.166;2023-10-19T11:12:14;18.80;99.90
2913;DHT22;1466;48.778;9.166;2023-10-19T11:14:58;18.80;99.90
2913;DHT22;1466;48.778;9.166;2023-10-19T11:17:29;18.70;99.90
2913;DHT22;1466;48.778;9.166;2023-10-19T11:19:58;18.70;99.90
2913;DHT22;1466;48.778;9.166;2023-10-19T11:22:27;18.70;99.90
2913;DHT22;1466;48.778;9.166;2023-10-19T11:24:54;18.70;99.90
2913;DHT22;1466;48.778;9.166;2023-10-19T11:27:29;18.60;99.90
2913;DHT22;1466;48.778;9.166;2023-10-19T11:29:56;18.60;99.90
2913;DHT22;1466;48.778;9.166;2023-10-19T11:32:22;18.50;99.90
2913;DHT22;1466;48.778;9.166;2023-10-19T11:34:51;18.50;99.90
2913;DHT22;1466;48.778;9.166;2023-10-19T11:37:17;18.50;99.90
2913;DHT22;1466;48.778;9.166;2023-10-19T11:39:43;18.40;99.90
2913;DHT22;1466;48.778;9.166;2023-10-19T11:42:09;18.40;99.90
2913;DHT22;1466;48.778;9.166;2023-10-19T11:44:35;18.40;99.90
2913;DHT22;1466;48.778;9.166;2023-10-19T11:47:02;18.30;99.90
2913;DHT22;1466;48.778;9.166;2023-10-19T11:49:28;18.30;99.90
2913;DHT22;1466;48.778;9.166;2023-10-19T11:51:54;18.30;99.90
2913;DHT22;1466;48.778;9.166;2023-10-19T11:54:20;18.30;99.90
2913;DHT22;1466;48.778;9.166;2023-10-19T11:56:46;18.20;99.90
2913;DHT22;1466;48.778;9.166;2023-10-19T11:59:12;18.30;99.90
2913;DHT22;1466;48.778;9.166;2023-10-19T12:01:38;18.30;99.90
2913;DHT22;1466;48.778;9.166;2023-10-19T12:04:04;18.20;99.90
2913;DHT22;1466;48.778;9.166;2023-10-19T12:06:31;18.20;99.90
2913;DHT22;1466;48.778;9.166;2023-10-19T12:08:56;18.20;99.90
2913;DHT22;1466;48.778;9.166;2023-10-19T12:11:24;18.10;99.90
2913;DHT22;1466;48.778;9.166;2023-10-19T12:13:50;18.00;99.90
2913;DHT22;1466;48.778;9.166;2023-10-19T12:16:16;18.00;99.90
2913;DHT22;1466;48.778;9.166;2023-10-19T12:18:43;18.00;99.90
2913;DHT22;1466;48.778;9.166;2023-10-19T12:21:09;18.00;99.90
2913;DHT22;1466;48.778;9.166;2023-10-19T12:23:41;17.90;99.90
2913;DHT22;1466;48.778;9.166;2023-10-19T12:26:07;17.90;99.90
2913;DHT22;1466;48.778;9.166;2023-10-19T12:28:39;17.80;99.90
2913;DHT22;1466;48.778;9.166;2023-10-19T12:31:04;17.70;99.90
2913;DHT22;1466;48.778;9.166;2023-10-19T12:33:37;17.60;99.90
2913;DHT22;1466;48.778;9.166;2023-10-19T12:36:04;17.60;99.90
2913;DHT22;1466;48.778;9.166;2023-10-19T12:38:49;17.60;99.90
2913;DHT22;1466;48.778;9.166;2023-10-19T12:41:16;17.60;99.90
2913;DHT22;1466;48.778;9.166;2023-10-19T12:43:43;17.50;99.90
2913;DHT22;1466;48.778;9.166;2023-10-19T12:46:08;17.50;99.90
2913;DHT22;1466;48.778;9.166;2023-10-19T12:48:35;17.40;99.90
2913;DHT22;1466;48.778;9.166;2023-10-19T12:51:01;17.50;99.90
2913;DHT22;1466;48.778;9.166;2023-10-19T12:53:27;17.40;99.90
2913;DHT22;1466;48.778;9.166;2023-10-19T12:55:53;17.60;99.90
2913;DHT22;1466;48.778;9.166;2023-10-19T12:58:18;17.60;99.90
2913;DHT22;1466;48.778;9.166;2023-10-19T13:00:47;17.70;99.90
2913;DHT22;1466;48.778;9.166;2023-10-19T13:03:14;17.70;99.90
2913;DHT22;1466;48.778;9.166;2023-10-19T13:05:42;17.70;99.90
2913;DHT22;1466;48.778;9.166;2023-10-19T13:08:11;17.70;99.90
2913;DHT22;1466;48.778;9.166;2023-10-19T13:10:43;17.80;99.90
2913;DHT22;1466;48.778;9.166;2023-10-19T13:13:13;17.80;99.90
2913;DHT22;1466;48.778;9.166;2023-10-19T13:15:41;17.80;99.90
2913;DHT22;1466;48.778;9.166;2023-10-19T13:18:08;17.80;99.90
2913;DHT22;1466;48.778;9.166;2023-10-19T13:20:39;17.80;99.90
2913;DHT22;1466;48.778;9.166;2023-10-19T13:23:09;17.80;99.90
2913;DHT22;1466;48.778;9.166;2023-10-19T13:25:42;17.80;99.90
2913;DHT22;1466;48.778;9.166;2023-10-19T13:28:13;17.80;99.90
2913;DHT22;1466;48.778;9.166;2023-10-19T13:30:49;17.80;99.90
2913;DHT22;1466;48.778;9.166;2023-10-19T13:33:16;17.90;99.90
2913;DHT22;1466;48.778;9.166;2023-10-19T13:35:43;17.90;99.90
2913;DHT22;1466;48.778;9.166;2023-10-19T13:38:10;18.00;99.90
2913;DHT22;1466;48.778;9.166;2023-10-19T13:40:38;18.00;99.90
2913;DHT22;1466;48.778;9.166;2023-10-19T13:43:04;18.00;99.90
2913;DHT22;1466;48.778;9.166;2023-10-19T13:45:32;18.00;99.90
2913;DHT22;1466;48.778;9.166;2023-10-19T13:48:02;18.00;99.90
2913;DHT22;1466;48.778;9.166;2023-10-19T13:50:29;18.00;99.90
2913;DHT22;1466;48.778;9.166;2023-10-19T13:52:55;18.00;99.90
2913;DHT22;1466;48.778;9.166;2023-10-19T13:55:22;18.00;99.90
2913;DHT22;1466;48.778;9.166;2023-10-19T13:57:49;17.90;99.90
2913;DHT22;1466;48.778;9.166;2023-10-19T14:00:16;17.90;99.90
2913;DHT22;1466;48.778;9.166;2023-10-19T14:02:50;17.90;99.90
2913;DHT22;1466;48.778;9.166;2023-10-19T14:05:16;17.80;99.90
2913;DHT22;1466;48.778;9.166;2023-10-19T14:07:42;17.90;99.90
2913;DHT22;1466;48.778;9.166;2023-10-19T14:10:09;17.90;99.90
2913;DHT22;1466;48.778;9.166;2023-10-19T14:12:38;17.90;99.90
2913;DHT22;1466;48.778;9.166;2023-10-19T14:15:09;17.90;99.90
2913;DHT22;1466;48.778;9.166;2023-10-19T14:17:35;17.80;99.90
2913;DHT22;1466;48.778;9.166;2023-10-19T14:20:00;17.80;99.90
2913;DHT22;1466;48.778;9.166;2023-10-19T14:22:26;17.70;99.90
2913;DHT22;1466;48.778;9.166;2023-10-19T14:24:53;17.60;99.90
2913;DHT22;1466;48.778;9.166;2023-10-19T14:27:18;17.70;99.90
2913;DHT22;1466;48.778;9.166;2023-10-19T14:29:46;17.70;99.90
2913;DHT22;1466;48.778;9.166;2023-10-19T14:32:12;17.70;99.90
2913;DHT22;1466;48.778;9.166;2023-10-19T14:34:38;17.70;99.90
2913;DHT22;1466;48.778;9.166;2023-10-19T14:37:03;17.70;99.90
2913;DHT22;1466;48.778;9.166;2023-10-19T14:39:29;17.70;99.90
2913;DHT22;1466;48.778;9.166;2023-10-19T14:41:54;17.70;99.90
2913;DHT22;1466;48.778;9.166;2023-10-19T14:44:20;17.60;99.90
2913;DHT22;1466;48.778;9.166;2023-10-19T14:46:47;17.60;99.90
2913;DHT22;1466;48.778;9.166;2023-10-19T14:49:12;17.50;99.90
2913;DHT22;1466;48.778;9.166;2023-10-19T14:51:38;17.50;99.90
2913;DHT22;1466;48.778;9.166;2023-10-19T14:54:04;17.40;99.90
2913;DHT22;1466;48.778;9.166;2023-10-19T14:56:29;17.50;99.90
2913;DHT22;1466;48.778;9.166;2023-10-19T14:58:55;17.50;99.90
2913;DHT22;1466;48.778;9.166;2023-10-19T15:01:24;17.50;99.90
2913;DHT22;1466;48.778;9.166;2023-10-19T15:03:51;17.50;99.90
2913;DHT22;1466;48.778;9.166;2023-10-19T15:06:16;17.50;99.90
2913;DHT22;1466;48.778;9.166;2023-10-19T15:08:43;17.50;99.90
2913;DHT22;1466;48.778;9.166;2023-10-19T15:11:09;17.50;99.90
2913;DHT22;1466;48.778;9.166;2023-10-19T15:13:35;17.50;99.90
2913;DHT22;1466;48.778;9.166;2023-10-19T15:16:08;17.60;99.90
2913;DHT22;1466;48.778;9.166;2023-10-19T15:18:34;17.50;99.90
2913;DHT22;1466;48.778;9.166;2023-10-19T15:21:11;17.50;99.90
2913;DHT22;1466;48.778;9.166;2023-10-19T15:23:39;17.50;99.90
2913;DHT22;1466;48.778;9.166;2023-10-19T15:26:06;17.60;99.90
2913;DHT22;1466;48.778;9.166;2023-10-19T15:28:32;17.60;99.90
2913;DHT22;1466;48.778;9.166;2023-10-19T15:30:59;17.60;99.90
2913;DHT22;1466;48.778;9.166;2023-10-19T15:33:28;17.60;99.90
2913;DHT22;1466;48.778;9.166;2023-10-19T15:35:57;17.70;99.90
2913;DHT22;1466;48.778;9.166;2023-10-19T15:38:23;17.60;99.90
2913;DHT22;1466;48.778;9.166;2023-10-19T15:40:49;17.60;99.90
2913;DHT22;1466;48.778;9.166;2023-10-19T15:43:15;17.60;99.90
2913;DHT22;1466;48.778;9.166;2023-10-19T15:45:41;17.60;99.90
2913;DHT22;1466;48.778;9.166;2023-10-19T15:48:10;17.50;99.90
2913;DHT22;1466;48.778;9.166;2023-10-19T15:50:38;17.60;99.90
2913;DHT22;1466;48.778;9.166;2023-10-19T15:53:06;17.60;99.90
2913;DHT22;1466;48.778;9.166;2023-10-19T15:55:32;17.60;99.90
2913;DHT22;1466;48.778;9.166;2023-10-19T15:57:58;17.60;99.90
2913;DHT22;1466;48.778;9.166;2023-10-19T16:00:23;17.60;99.90
2913;DHT22;1466;48.778;9.166;2023-10-19T16:02:50;17.60;99.90
2913;DHT22;1466;48.778;9.166;2023-10-19T16:05:16;17.60;99.90
2913;DHT22;1466;48.778;9.166;2023-10-19T16:07:42;17.50;99.90
2913;DHT22;1466;48.778;9.166;2023-10-19T16:10:08;17.50;99.90
2913;DHT22;1466;48.778;9.166;2023-10-19T16:12:34;17.50;99.90
2913;DHT22;1466;48.778;9.166;2023-10-19T16:15:00;17.50;99.90